^^
Station Historical Data
Daily Summary for November 24, 2017 Units:  Both    English   Metric
« Previous Day
Next Day »
Daily Weekly Monthly Yearly Custom
  High: Low: Average:
Temperature: TemperatureF °F /  -17.8 °C 60.4 °F /  15.8 °C 76.8 °F /  24.9 °C
Dew Point: DewpointF °F /  -17.8 °C 25.3 °F /  -3.7 °C 33.6 °F /  0.9 °C
Humidity: Humidity% 11% 23%
Wind Speed: WindSpeedMPHmph /  0km/h - 2mph /  3.2km/h
Wind Gust: WindSpeedGustMPHmph /  0km/h - -
Wind- - SW
Pressure: PressureIn in /  0 hPa 29.66 in /  1004.3 hPa -
Precipitation: 0.00 in /  0 mm    
Historical Graphs
 
 
Tabular Data for November 24, 2017
Time Temperature Dew Point Pressure Wind Wind Speed Wind Gust Humidity Rainfall Rate (Hourly) solar Conditions
TemperatureF °F /  -17.8 °C DewpointF °F /  -17.8 °C PressureInin /  0hPa Calm     Humidity% HourlyPrecipInin /  0mm SolarRadiationWatts/m^2 W/m2 Conditions
00:02 69.1 °F /  20.6 °C 28.6 °F /  -1.9 °C 29.77in /  1008hPa Calm   1.0mph /  1.6km/h 22% 0.00in /  0mm 0.0 W/m2
00:07 68.7 °F /  20.4 °C 28.4 °F /  -2 °C 29.77in /  1008hPa Calm     22% 0.00in /  0mm 0.0 W/m2
00:13 68.4 °F /  20.2 °C 28.0 °F /  -2.2 °C 29.77in /  1008hPa ENE 0.9mph /  1.4km/h 3.0mph /  4.8km/h 22% 0.00in /  0mm 0.0 W/m2
00:18 68.0 °F /  20 °C 27.7 °F /  -2.4 °C 29.77in /  1008hPa Calm     22% 0.00in /  0mm 0.0 W/m2
00:23 67.6 °F /  19.8 °C 27.5 °F /  -2.5 °C 29.77in /  1008hPa Calm     22% 0.00in /  0mm 0.0 W/m2
00:38 66.9 °F /  19.4 °C 28.9 °F /  -1.7 °C 29.76in /  1007.7hPa East 0.9mph /  1.4km/h 2.0mph /  3.2km/h 24% 0.00in /  0mm 0.0 W/m2
00:43 66.7 °F /  19.3 °C 28.8 °F /  -1.8 °C 29.76in /  1007.7hPa ESE 2.0mph /  3.2km/h 2.0mph /  3.2km/h 24% 0.00in /  0mm 0.0 W/m2
00:48 66.6 °F /  19.2 °C 29.7 °F /  -1.3 °C 29.76in /  1007.7hPa Calm   2.0mph /  3.2km/h 25% 0.00in /  0mm 0.0 W/m2
00:53 66.4 °F /  19.1 °C 29.5 °F /  -1.4 °C 29.76in /  1007.7hPa ESE 0.9mph /  1.4km/h 6.0mph /  9.7km/h 25% 0.00in /  0mm 0.0 W/m2
00:58 66.2 °F /  19 °C 29.3 °F /  -1.5 °C 29.76in /  1007.7hPa NE 2.0mph /  3.2km/h 3.0mph /  4.8km/h 25% 0.00in /  0mm 0.0 W/m2
01:09 65.8 °F /  18.8 °C 30.9 °F /  -0.6 °C 29.75in /  1007.3hPa Calm   3.0mph /  4.8km/h 27% 0.00in /  0mm 0.0 W/m2
01:15 65.7 °F /  18.7 °C 31.6 °F /  -0.2 °C 29.76in /  1007.7hPa SSE 2.0mph /  3.2km/h 3.0mph /  4.8km/h 28% 0.00in /  0mm 0.0 W/m2
01:30 65.1 °F /  18.4 °C 33.8 °F /  1 °C 29.76in /  1007.7hPa Calm   4.0mph /  6.4km/h 31% 0.00in /  0mm 0.0 W/m2
01:35 65.1 °F /  18.4 °C 33.8 °F /  1 °C 29.75in /  1007.3hPa Calm   3.0mph /  4.8km/h 31% 0.00in /  0mm 0.0 W/m2
01:40 64.9 °F /  18.3 °C 34.3 °F /  1.3 °C 29.75in /  1007.3hPa Calm   1.0mph /  1.6km/h 32% 0.00in /  0mm 0.0 W/m2
01:45 64.8 °F /  18.2 °C 35.1 °F /  1.7 °C 29.75in /  1007.3hPa East 2.9mph /  4.7km/h 3.0mph /  4.8km/h 33% 0.00in /  0mm 0.0 W/m2
01:56 64.6 °F /  18.1 °C 36.3 °F /  2.4 °C 29.75in /  1007.3hPa Calm   2.0mph /  3.2km/h 35% 0.00in /  0mm 0.0 W/m2
02:06 64.4 °F /  18 °C 35.4 °F /  1.9 °C 29.75in /  1007.3hPa Calm   1.0mph /  1.6km/h 34% 0.00in /  0mm 0.0 W/m2
02:11 64.2 °F /  17.9 °C 33.8 °F /  1 °C 29.75in /  1007.3hPa SSE 0.9mph /  1.4km/h 2.0mph /  3.2km/h 32% 0.00in /  0mm 0.0 W/m2
02:16 64.0 °F /  17.8 °C 32.7 °F /  0.4 °C 29.75in /  1007.3hPa Calm     31% 0.00in /  0mm 0.0 W/m2
02:26 63.9 °F /  17.7 °C 31.8 °F /  -0.1 °C 29.75in /  1007.3hPa Calm   2.0mph /  3.2km/h 30% 0.00in /  0mm 0.0 W/m2
02:41 63.1 °F /  17.3 °C 31.3 °F /  -0.4 °C 29.75in /  1007.3hPa Calm     30% 0.00in /  0mm 0.0 W/m2
02:52 62.8 °F /  17.1 °C 33.3 °F /  0.7 °C 29.75in /  1007.3hPa Calm     33% 0.00in /  0mm 0.0 W/m2
03:18 61.7 °F /  16.5 °C 37.8 °F /  3.2 °C 29.75in /  1007.3hPa SE 0.9mph /  1.4km/h 1.0mph /  1.6km/h 41% 0.00in /  0mm 0.0 W/m2
03:28 61.5 °F /  16.4 °C 35.1 °F /  1.7 °C 29.74in /  1007hPa Calm   2.0mph /  3.2km/h 37% 0.00in /  0mm 0.0 W/m2
03:39 61.7 °F /  16.5 °C 38.3 °F /  3.5 °C 29.74in /  1007hPa Calm   2.0mph /  3.2km/h 42% 0.00in /  0mm 0.0 W/m2
03:49 61.5 °F /  16.4 °C 34.3 °F /  1.3 °C 29.74in /  1007hPa Calm   2.0mph /  3.2km/h 36% 0.00in /  0mm 0.0 W/m2
03:54 61.5 °F /  16.4 °C 34.3 °F /  1.3 °C 29.74in /  1007hPa Calm     36% 0.00in /  0mm 0.0 W/m2
03:59 61.5 °F /  16.4 °C 35.6 °F /  2 °C 29.74in /  1007hPa Calm     38% 0.00in /  0mm 0.0 W/m2
04:04 61.3 °F /  16.3 °C 36.1 °F /  2.3 °C 29.74in /  1007hPa Calm   1.0mph /  1.6km/h 39% 0.00in /  0mm 0.0 W/m2
04:09 61.3 °F /  16.3 °C 37.4 °F /  3 °C 29.74in /  1007hPa Calm   1.0mph /  1.6km/h 41% 0.00in /  0mm 0.0 W/m2
04:14 61.3 °F /  16.3 °C 34.9 °F /  1.6 °C 29.74in /  1007hPa Calm   3.0mph /  4.8km/h 37% 0.00in /  0mm 0.0 W/m2
04:20 61.2 °F /  16.2 °C 35.4 °F /  1.9 °C 29.74in /  1007hPa SSE 0.9mph /  1.4km/h 1.0mph /  1.6km/h 38% 0.00in /  0mm 0.0 W/m2
04:26 61.3 °F /  16.3 °C 36.1 °F /  2.3 °C 29.74in /  1007hPa Calm   1.0mph /  1.6km/h 39% 0.00in /  0mm 0.0 W/m2
04:31 61.3 °F /  16.3 °C 34.9 °F /  1.6 °C 29.74in /  1007hPa Calm     37% 0.00in /  0mm 0.0 W/m2
04:36 61.3 °F /  16.3 °C 34.9 °F /  1.6 °C 29.74in /  1007hPa Calm   2.0mph /  3.2km/h 37% 0.00in /  0mm 0.0 W/m2
04:41 61.5 °F /  16.4 °C 35.1 °F /  1.7 °C 29.74in /  1007hPa Calm   2.0mph /  3.2km/h 37% 0.00in /  0mm 0.0 W/m2
04:56 61.7 °F /  16.5 °C 34.5 °F /  1.4 °C 29.74in /  1007hPa Calm     36% 0.00in /  0mm 0.0 W/m2
05:06 61.5 °F /  16.4 °C 37.0 °F /  2.8 °C 29.75in /  1007.3hPa Calm     40% 0.00in /  0mm 0.0 W/m2
05:20 61.3 °F /  16.3 °C 38.1 °F /  3.4 °C 29.75in /  1007.3hPa ENE 0.9mph /  1.4km/h 1.0mph /  1.6km/h 42% 0.00in /  0mm 0.0 W/m2
05:25 61.5 °F /  16.4 °C 39.9 °F /  4.4 °C 29.75in /  1007.3hPa East 2.0mph /  3.2km/h 2.0mph /  3.2km/h 45% 0.00in /  0mm 0.0 W/m2
05:40 61.3 °F /  16.3 °C 34.9 °F /  1.6 °C 29.75in /  1007.3hPa Calm     37% 0.00in /  0mm 0.0 W/m2
05:42 61.2 °F /  16.2 °C 34.7 °F /  1.5 °C 29.75in /  1007.3hPa Calm     37% 0.00in /  0mm 0.0 W/m2
05:47 61.0 °F /  16.1 °C 35.2 °F /  1.8 °C 29.75in /  1007.3hPa Calm     38% 0.00in /  0mm 0.0 W/m2
05:52 60.6 °F /  15.9 °C 35.6 °F /  2 °C 29.75in /  1007.3hPa Calm     39% 0.00in /  0mm 0.0 W/m2
06:03 60.4 °F /  15.8 °C 38.5 °F /  3.6 °C 29.75in /  1007.3hPa Calm   1.0mph /  1.6km/h 44% 0.00in /  0mm 0.0 W/m2
06:13 60.4 °F /  15.8 °C 37.2 °F /  2.9 °C 29.75in /  1007.3hPa Calm     42% 0.00in /  0mm 7.0 W/m2
06:18 60.4 °F /  15.8 °C 36.7 °F /  2.6 °C 29.76in /  1007.7hPa Calm     41% 0.00in /  0mm 9.0 W/m2
06:23 60.6 °F /  15.9 °C 39.2 °F /  4 °C 29.76in /  1007.7hPa ESE 0.9mph /  1.4km/h 1.0mph /  1.6km/h 45% 0.00in /  0mm 11.0 W/m2
06:33 61.0 °F /  16.1 °C 39.6 °F /  4.2 °C 29.76in /  1007.7hPa Calm   2.0mph /  3.2km/h 45% 0.00in /  0mm 19.0 W/m2
06:39 61.0 °F /  16.1 °C 40.1 °F /  4.5 °C 29.76in /  1007.7hPa Calm   1.0mph /  1.6km/h 46% 0.00in /  0mm 26.0 W/m2
06:45 61.2 °F /  16.2 °C 40.8 °F /  4.9 °C 29.76in /  1007.7hPa ESE 2.0mph /  3.2km/h 2.0mph /  3.2km/h 47% 0.00in /  0mm 33.0 W/m2
06:50 61.5 °F /  16.4 °C 41.7 °F /  5.4 °C 29.76in /  1007.7hPa Calm   2.0mph /  3.2km/h 48% 0.00in /  0mm 39.0 W/m2
06:55 61.7 °F /  16.5 °C 42.3 °F /  5.7 °C 29.76in /  1007.7hPa Calm   1.0mph /  1.6km/h 49% 0.00in /  0mm 42.0 W/m2
07:05 62.4 °F /  16.9 °C 43.0 °F /  6.1 °C 29.77in /  1008hPa South 2.9mph /  4.7km/h 3.0mph /  4.8km/h 49% 0.00in /  0mm 62.0 W/m2
07:10 63.0 °F /  17.2 °C 41.4 °F /  5.2 °C 29.77in /  1008hPa SE 2.0mph /  3.2km/h 5.0mph /  8km/h 45% 0.00in /  0mm 76.0 W/m2
07:20 64.2 °F /  17.9 °C 41.2 °F /  5.1 °C 29.77in /  1008hPa Calm   1.0mph /  1.6km/h 43% 0.00in /  0mm 95.0 W/m2
07:25 64.8 °F /  18.2 °C 41.7 °F /  5.4 °C 29.77in /  1008hPa SE 0.9mph /  1.4km/h 3.0mph /  4.8km/h 43% 0.00in /  0mm 142.0 W/m2
07:30 65.5 °F /  18.6 °C 43.0 °F /  6.1 °C 29.78in /  1008.4hPa Calm   1.0mph /  1.6km/h 44% 0.00in /  0mm 98.0 W/m2
07:36 66.0 °F /  18.9 °C 41.0 °F /  5 °C 29.78in /  1008.4hPa Calm     40% 0.00in /  0mm 359.0 W/m2
07:46 67.5 °F /  19.7 °C 40.3 °F /  4.6 °C 29.78in /  1008.4hPa Calm     37% 0.00in /  0mm 137.0 W/m2
07:52 68.2 °F /  20.1 °C 41.0 °F /  5 °C 29.78in /  1008.4hPa Calm   1.0mph /  1.6km/h 37% 0.00in /  0mm 144.0 W/m2
07:57 68.9 °F /  20.5 °C 43.0 °F /  6.1 °C 29.78in /  1008.4hPa Calm     39% 0.00in /  0mm 116.0 W/m2
08:02 69.6 °F /  20.9 °C 40.8 °F /  4.9 °C 29.78in /  1008.4hPa Calm     35% 0.00in /  0mm 139.0 W/m2
08:07 70.3 °F /  21.3 °C 41.4 °F /  5.2 °C 29.78in /  1008.4hPa Calm   2.0mph /  3.2km/h 35% 0.00in /  0mm 199.0 W/m2
08:12 71.1 °F /  21.7 °C 43.5 °F /  6.4 °C 29.78in /  1008.4hPa Calm   2.0mph /  3.2km/h 37% 0.00in /  0mm 429.0 W/m2
08:18 72.1 °F /  22.3 °C 45.1 °F /  7.3 °C 29.78in /  1008.4hPa NNW 0.9mph /  1.4km/h 2.0mph /  3.2km/h 38% 0.00in /  0mm 482.0 W/m2
08:23 72.9 °F /  22.7 °C 44.4 °F /  6.9 °C 29.78in /  1008.4hPa North 0.9mph /  1.4km/h 2.0mph /  3.2km/h 36% 0.00in /  0mm 480.0 W/m2
08:28 73.8 °F /  23.2 °C 45.1 °F /  7.3 °C 29.78in /  1008.4hPa NNW 2.0mph /  3.2km/h 4.0mph /  6.4km/h 36% 0.00in /  0mm 513.0 W/m2
08:39 75.6 °F /  24.2 °C 46.0 °F /  7.8 °C 29.78in /  1008.4hPa North 0.9mph /  1.4km/h 4.0mph /  6.4km/h 35% 0.00in /  0mm 555.0 W/m2
08:44 75.9 °F /  24.4 °C 46.2 °F /  7.9 °C 29.78in /  1008.4hPa Calm   3.0mph /  4.8km/h 35% 0.00in /  0mm 561.0 W/m2
08:50 76.5 °F /  24.7 °C 46.0 °F /  7.8 °C 29.78in /  1008.4hPa Calm   3.0mph /  4.8km/h 34% 0.00in /  0mm 605.0 W/m2
08:55 77.2 °F /  25.1 °C 46.6 °F /  8.1 °C 29.78in /  1008.4hPa NW 4.0mph /  6.4km/h 4.0mph /  6.4km/h 34% 0.00in /  0mm 615.0 W/m2
09:00 77.4 °F /  25.2 °C 46.8 °F /  8.2 °C 29.78in /  1008.4hPa Calm   4.0mph /  6.4km/h 34% 0.00in /  0mm 652.0 W/m2
09:11 78.1 °F /  25.6 °C 47.5 °F /  8.6 °C 29.78in /  1008.4hPa West 2.0mph /  3.2km/h 4.0mph /  6.4km/h 34% 0.00in /  0mm 341.0 W/m2
09:16 77.7 °F /  25.4 °C 47.1 °F /  8.4 °C 29.78in /  1008.4hPa Calm   5.0mph /  8km/h 34% 0.00in /  0mm 262.0 W/m2
09:22 77.5 °F /  25.3 °C 46.9 °F /  8.3 °C 29.78in /  1008.4hPa NNW 4.9mph /  7.9km/h 5.0mph /  8km/h 34% 0.00in /  0mm 348.0 W/m2
09:27 77.4 °F /  25.2 °C 47.5 °F /  8.6 °C 29.78in /  1008.4hPa West 0.9mph /  1.4km/h 4.0mph /  6.4km/h 35% 0.00in /  0mm 367.0 W/m2
09:32 77.4 °F /  25.2 °C 47.5 °F /  8.6 °C 29.78in /  1008.4hPa NNW 0.9mph /  1.4km/h 3.0mph /  4.8km/h 35% 0.00in /  0mm 364.0 W/m2
09:42 77.5 °F /  25.3 °C 47.7 °F /  8.7 °C 29.77in /  1008hPa North 0.9mph /  1.4km/h 3.0mph /  4.8km/h 35% 0.00in /  0mm 352.0 W/m2
09:48 78.1 °F /  25.6 °C 47.5 °F /  8.6 °C 29.77in /  1008hPa NNW 4.0mph /  6.4km/h 4.0mph /  6.4km/h 34% 0.00in /  0mm 886.0 W/m2
09:53 78.6 °F /  25.9 °C 47.8 °F /  8.8 °C 29.77in /  1008hPa Calm   5.0mph /  8km/h 34% 0.00in /  0mm 353.0 W/m2
10:04 79.2 °F /  26.2 °C 48.4 °F /  9.1 °C 29.77in /  1008hPa Calm   2.0mph /  3.2km/h 34% 0.00in /  0mm 352.0 W/m2
10:09 79.2 °F /  26.2 °C 47.7 °F /  8.7 °C 29.77in /  1008hPa West 2.0mph /  3.2km/h 5.0mph /  8km/h 33% 0.00in /  0mm 320.0 W/m2
10:14 79.0 °F /  26.1 °C 47.5 °F /  8.6 °C 29.76in /  1007.7hPa Calm   1.0mph /  1.6km/h 33% 0.00in /  0mm 276.0 W/m2
10:19 79.0 °F /  26.1 °C 47.5 °F /  8.6 °C 29.76in /  1007.7hPa Calm   1.0mph /  1.6km/h 33% 0.00in /  0mm 406.0 W/m2
10:29 80.4 °F /  26.9 °C 45.3 °F /  7.4 °C 29.76in /  1007.7hPa NW 0.9mph /  1.4km/h 2.0mph /  3.2km/h 29% 0.00in /  0mm 726.0 W/m2
10:34 81.3 °F /  27.4 °C 46.9 °F /  8.3 °C 29.76in /  1007.7hPa WSW 0.9mph /  1.4km/h 3.0mph /  4.8km/h 30% 0.00in /  0mm 568.0 W/m2
10:39 82.0 °F /  27.8 °C 43.7 °F /  6.5 °C 29.76in /  1007.7hPa NNW 2.9mph /  4.7km/h 5.0mph /  8km/h 26% 0.00in /  0mm 1063.0 W/m2
10:45 83.1 °F /  28.4 °C 41.5 °F /  5.3 °C 29.76in /  1007.7hPa SSW 0.9mph /  1.4km/h 4.0mph /  6.4km/h 23% 0.00in /  0mm 1011.0 W/m2
10:50 83.7 °F /  28.7 °C 40.8 °F /  4.9 °C 29.76in /  1007.7hPa NW 2.9mph /  4.7km/h 5.0mph /  8km/h 22% 0.00in /  0mm 981.0 W/m2
10:55 84.0 °F /  28.9 °C 38.7 °F /  3.7 °C 29.75in /  1007.3hPa NE 2.9mph /  4.7km/h 7.0mph /  11.3km/h 20% 0.00in /  0mm 988.0 W/m2
11:01 84.6 °F /  29.2 °C 40.3 °F /  4.6 °C 29.75in /  1007.3hPa Calm   5.0mph /  8km/h 21% 0.00in /  0mm 984.0 W/m2
11:06 85.1 °F /  29.5 °C 36.9 °F /  2.7 °C 29.75in /  1007.3hPa NNW 6.0mph /  9.7km/h 7.0mph /  11.3km/h 18% 0.00in /  0mm 986.0 W/m2
11:11 85.5 °F /  29.7 °C 35.6 °F /  2 °C 29.75in /  1007.3hPa Calm   5.0mph /  8km/h 17% 0.00in /  0mm 997.0 W/m2
11:16 85.6 °F /  29.8 °C 35.8 °F /  2.1 °C 29.75in /  1007.3hPa NE 0.9mph /  1.4km/h 7.0mph /  11.3km/h 17% 0.00in /  0mm 1011.0 W/m2
11:17 85.5 °F /  29.7 °C 35.6 °F /  2 °C 29.75in /  1007.3hPa NE 4.0mph /  6.4km/h 5.0mph /  8km/h 17% 0.00in /  0mm 1014.0 W/m2
11:22 85.6 °F /  29.8 °C 35.8 °F /  2.1 °C 29.75in /  1007.3hPa NE 0.9mph /  1.4km/h 7.0mph /  11.3km/h 17% 0.00in /  0mm 997.0 W/m2
11:27 86.2 °F /  30.1 °C 34.7 °F /  1.5 °C 29.75in /  1007.3hPa North 4.0mph /  6.4km/h 8.0mph /  12.9km/h 16% 0.00in /  0mm 1004.0 W/m2
11:32 86.7 °F /  30.4 °C 35.2 °F /  1.8 °C 29.75in /  1007.3hPa NNW 8.9mph /  14.3km/h 11.0mph /  17.7km/h 16% 0.00in /  0mm 1021.0 W/m2
11:38 86.7 °F /  30.4 °C 35.2 °F /  1.8 °C 29.75in /  1007.3hPa NNW 2.0mph /  3.2km/h 6.0mph /  9.7km/h 16% 0.00in /  0mm 1058.0 W/m2
11:44 87.1 °F /  30.6 °C 37.0 °F /  2.8 °C 29.76in /  1007.7hPa West 2.0mph /  3.2km/h 4.0mph /  6.4km/h 17% 0.00in /  0mm 1042.0 W/m2
11:49 86.2 °F /  30.1 °C 36.3 °F /  2.4 °C 29.75in /  1007.3hPa Calm   7.0mph /  11.3km/h 17% 0.00in /  0mm 1086.0 W/m2
11:54 85.5 °F /  29.7 °C 37.0 °F /  2.8 °C 29.75in /  1007.3hPa NNW 2.9mph /  4.7km/h 6.0mph /  9.7km/h 18% 0.00in /  0mm 1146.0 W/m2
12:00 85.6 °F /  29.8 °C 35.8 °F /  2.1 °C 29.75in /  1007.3hPa WNW 2.0mph /  3.2km/h 7.0mph /  11.3km/h 17% 0.00in /  0mm 780.0 W/m2
12:05 85.6 °F /  29.8 °C 35.8 °F /  2.1 °C 29.75in /  1007.3hPa WNW 4.0mph /  6.4km/h 7.0mph /  11.3km/h 17% 0.00in /  0mm 1329.0 W/m2
12:10 85.8 °F /  29.9 °C 37.4 °F /  3 °C 29.75in /  1007.3hPa NW 2.0mph /  3.2km/h 8.0mph /  12.9km/h 18% 0.00in /  0mm 468.0 W/m2
12:16 86.7 °F /  30.4 °C 36.7 °F /  2.6 °C 29.75in /  1007.3hPa NNW 6.0mph /  9.7km/h 7.0mph /  11.3km/h 17% 0.00in /  0mm 1276.0 W/m2
12:21 87.3 °F /  30.7 °C 37.2 °F /  2.9 °C 29.75in /  1007.3hPa NE 0.9mph /  1.4km/h 5.0mph /  8km/h 17% 0.00in /  0mm 1339.0 W/m2
12:26 87.4 °F /  30.8 °C 37.2 °F /  2.9 °C 29.75in /  1007.3hPa NNW 6.9mph /  11.1km/h 7.0mph /  11.3km/h 17% 0.00in /  0mm 497.0 W/m2
12:31 87.6 °F /  30.9 °C 37.4 °F /  3 °C 29.74in /  1007hPa Calm   3.0mph /  4.8km/h 17% 0.00in /  0mm 302.0 W/m2
12:36 87.6 °F /  30.9 °C 37.4 °F /  3 °C 29.74in /  1007hPa WSW 4.0mph /  6.4km/h 12.0mph /  19.3km/h 17% 0.00in /  0mm 1318.0 W/m2
12:41 87.4 °F /  30.8 °C 37.2 °F /  2.9 °C 29.74in /  1007hPa West 2.0mph /  3.2km/h 10.0mph /  16.1km/h 17% 0.00in /  0mm 1376.0 W/m2
12:46 87.8 °F /  31 °C 37.6 °F /  3.1 °C 29.74in /  1007hPa WNW 0.9mph /  1.4km/h 10.0mph /  16.1km/h 17% 0.00in /  0mm 478.0 W/m2
12:51 88.2 °F /  31.2 °C 36.3 °F /  2.4 °C 29.74in /  1007hPa WSW 2.9mph /  4.7km/h 6.0mph /  9.7km/h 16% 0.00in /  0mm 1287.0 W/m2
12:57 88.7 °F /  31.5 °C 36.7 °F /  2.6 °C 29.73in /  1006.7hPa WNW 2.9mph /  4.7km/h 14.0mph /  22.5km/h 16% 0.00in /  0mm 1276.0 W/m2
13:02 88.9 °F /  31.6 °C 35.2 °F /  1.8 °C 29.73in /  1006.7hPa NNW 2.9mph /  4.7km/h 8.0mph /  12.9km/h 15% 0.00in /  0mm 373.0 W/m2
13:07 88.3 °F /  31.3 °C 36.5 °F /  2.5 °C 29.73in /  1006.7hPa Calm   12.0mph /  19.3km/h 16% 0.00in /  0mm 492.0 W/m2
13:12 88.2 °F /  31.2 °C 36.3 °F /  2.4 °C 29.73in /  1006.7hPa WNW 2.9mph /  4.7km/h 6.0mph /  9.7km/h 16% 0.00in /  0mm 364.0 W/m2
13:17 87.8 °F /  31 °C 36.0 °F /  2.2 °C 29.73in /  1006.7hPa NNE 4.9mph /  7.9km/h 7.0mph /  11.3km/h 16% 0.00in /  0mm 332.0 W/m2
13:22 87.3 °F /  30.7 °C 35.6 °F /  2 °C 29.73in /  1006.7hPa WNW 2.0mph /  3.2km/h 11.0mph /  17.7km/h 16% 0.00in /  0mm 297.0 W/m2
13:27 86.7 °F /  30.4 °C 36.7 °F /  2.6 °C 29.73in /  1006.7hPa Calm   6.0mph /  9.7km/h 17% 0.00in /  0mm 341.0 W/m2
13:32 86.4 °F /  30.2 °C 36.3 °F /  2.4 °C 29.72in /  1006.3hPa ESE 0.9mph /  1.4km/h 7.0mph /  11.3km/h 17% 0.00in /  0mm 404.0 W/m2
13:38 86.4 °F /  30.2 °C 36.3 °F /  2.4 °C 29.72in /  1006.3hPa NW 2.9mph /  4.7km/h 4.0mph /  6.4km/h 17% 0.00in /  0mm 427.0 W/m2
13:43 86.7 °F /  30.4 °C 35.2 °F /  1.8 °C 29.72in /  1006.3hPa Calm   4.0mph /  6.4km/h 16% 0.00in /  0mm 381.0 W/m2
13:48 87.1 °F /  30.6 °C 37.0 °F /  2.8 °C 29.72in /  1006.3hPa WSW 2.0mph /  3.2km/h 4.0mph /  6.4km/h 17% 0.00in /  0mm 1255.0 W/m2
13:54 88.0 °F /  31.1 °C 36.1 °F /  2.3 °C 29.72in /  1006.3hPa NNW 4.0mph /  6.4km/h 8.0mph /  12.9km/h 16% 0.00in /  0mm 353.0 W/m2
13:59 88.3 °F /  31.3 °C 36.5 °F /  2.5 °C 29.71in /  1006hPa Calm   10.0mph /  16.1km/h 16% 0.00in /  0mm 1201.0 W/m2
14:04 89.2 °F /  31.8 °C 33.8 °F /  1 °C 29.71in /  1006hPa NNW 6.0mph /  9.7km/h 10.0mph /  16.1km/h 14% 0.00in /  0mm 279.0 W/m2
14:09 89.1 °F /  31.7 °C 33.6 °F /  0.9 °C 29.71in /  1006hPa NW 6.0mph /  9.7km/h 9.0mph /  14.5km/h 14% 0.00in /  0mm 294.0 W/m2
14:14 88.2 °F /  31.2 °C 34.7 °F /  1.5 °C 29.71in /  1006hPa North 4.0mph /  6.4km/h 6.0mph /  9.7km/h 15% 0.00in /  0mm 390.0 W/m2
14:19 88.3 °F /  31.3 °C 34.9 °F /  1.6 °C 29.71in /  1006hPa WSW 4.9mph /  7.9km/h 8.0mph /  12.9km/h 15% 0.00in /  0mm 1269.0 W/m2
14:24 89.1 °F /  31.7 °C 33.6 °F /  0.9 °C 29.71in /  1006hPa West 4.9mph /  7.9km/h 5.0mph /  8km/h 14% 0.00in /  0mm 292.0 W/m2
14:29 88.5 °F /  31.4 °C 33.3 °F /  0.7 °C 29.70in /  1005.6hPa SW 6.0mph /  9.7km/h 6.0mph /  9.7km/h 14% 0.00in /  0mm 274.0 W/m2
14:35 87.6 °F /  30.9 °C 34.3 °F /  1.3 °C 29.70in /  1005.6hPa West 6.0mph /  9.7km/h 9.0mph /  14.5km/h 15% 0.00in /  0mm 311.0 W/m2
14:40 87.3 °F /  30.7 °C 34.0 °F /  1.1 °C 29.70in /  1005.6hPa WSW 2.9mph /  4.7km/h 3.0mph /  4.8km/h 15% 0.00in /  0mm 308.0 W/m2
14:45 86.7 °F /  30.4 °C 33.6 °F /  0.9 °C 29.70in /  1005.6hPa West 4.9mph /  7.9km/h 8.0mph /  12.9km/h 15% 0.00in /  0mm 306.0 W/m2
14:51 86.4 °F /  30.2 °C 34.9 °F /  1.6 °C 29.70in /  1005.6hPa Calm   8.0mph /  12.9km/h 16% 0.00in /  0mm 306.0 W/m2
14:56 86.4 °F /  30.2 °C 33.3 °F /  0.7 °C 29.69in /  1005.3hPa SW 2.0mph /  3.2km/h 2.0mph /  3.2km/h 15% 0.00in /  0mm 487.0 W/m2
15:01 87.1 °F /  30.6 °C 35.4 °F /  1.9 °C 29.69in /  1005.3hPa WSW 2.9mph /  4.7km/h 10.0mph /  16.1km/h 16% 0.00in /  0mm 411.0 W/m2
15:06 87.4 °F /  30.8 °C 34.2 °F /  1.2 °C 29.69in /  1005.3hPa West 6.0mph /  9.7km/h 17.0mph /  27.4km/h 15% 0.00in /  0mm 265.0 W/m2
15:11 87.1 °F /  30.6 °C 33.8 °F /  1 °C 29.69in /  1005.3hPa North 2.0mph /  3.2km/h 6.0mph /  9.7km/h 15% 0.00in /  0mm 983.0 W/m2
15:17 88.2 °F /  31.2 °C 32.9 °F /  0.5 °C 29.68in /  1005hPa SW 2.0mph /  3.2km/h 8.0mph /  12.9km/h 14% 0.00in /  0mm 251.0 W/m2
15:22 87.8 °F /  31 °C 32.7 °F /  0.4 °C 29.69in /  1005.3hPa WSW 8.9mph /  14.3km/h 14.0mph /  22.5km/h 14% 0.00in /  0mm 197.0 W/m2
15:27 86.9 °F /  30.5 °C 33.6 °F /  0.9 °C 29.69in /  1005.3hPa WNW 2.0mph /  3.2km/h 7.0mph /  11.3km/h 15% 0.00in /  0mm 223.0 W/m2
15:33 86.4 °F /  30.2 °C 31.5 °F /  -0.3 °C 29.68in /  1005hPa WSW 2.9mph /  4.7km/h 5.0mph /  8km/h 14% 0.00in /  0mm 527.0 W/m2
15:38 86.2 °F /  30.1 °C 33.1 °F /  0.6 °C 29.68in /  1005hPa WSW 4.0mph /  6.4km/h 11.0mph /  17.7km/h 15% 0.00in /  0mm 185.0 W/m2
15:43 85.6 °F /  29.8 °C 32.7 °F /  0.4 °C 29.68in /  1005hPa WSW 0.9mph /  1.4km/h 8.0mph /  12.9km/h 15% 0.00in /  0mm 181.0 W/m2
15:48 85.5 °F /  29.7 °C 32.5 °F /  0.3 °C 29.68in /  1005hPa WSW 2.0mph /  3.2km/h 8.0mph /  12.9km/h 15% 0.00in /  0mm 223.0 W/m2
15:53 85.8 °F /  29.9 °C 32.9 °F /  0.5 °C 29.67in /  1004.6hPa SSW 0.9mph /  1.4km/h 2.0mph /  3.2km/h 15% 0.00in /  0mm 462.0 W/m2
15:58 86.9 °F /  30.5 °C 32.0 °F /  0 °C 29.67in /  1004.6hPa West 0.9mph /  1.4km/h 5.0mph /  8km/h 14% 0.00in /  0mm 784.0 W/m2
16:04 88.3 °F /  31.3 °C 33.1 °F /  0.6 °C 29.67in /  1004.6hPa WSW 4.0mph /  6.4km/h 14.0mph /  22.5km/h 14% 0.00in /  0mm 744.0 W/m2
16:09 89.1 °F /  31.7 °C 31.8 °F /  -0.1 °C 29.67in /  1004.6hPa WSW 4.0mph /  6.4km/h 4.0mph /  6.4km/h 13% 0.00in /  0mm 722.0 W/m2
16:14 89.6 °F /  32 °C 32.2 °F /  0.1 °C 29.67in /  1004.6hPa West 4.9mph /  7.9km/h 12.0mph /  19.3km/h 13% 0.00in /  0mm 715.0 W/m2
16:19 89.8 °F /  32.1 °C 32.4 °F /  0.2 °C 29.67in /  1004.6hPa SSW 8.9mph /  14.3km/h 9.0mph /  14.5km/h 13% 0.00in /  0mm 682.0 W/m2
16:24 90.1 °F /  32.3 °C 30.7 °F /  -0.7 °C 29.66in /  1004.3hPa SW 2.0mph /  3.2km/h 7.0mph /  11.3km/h 12% 0.00in /  0mm 663.0 W/m2
16:30 90.9 °F /  32.7 °C 31.3 °F /  -0.4 °C 29.66in /  1004.3hPa WSW 0.9mph /  1.4km/h 7.0mph /  11.3km/h 12% 0.00in /  0mm 640.0 W/m2
16:35 91.0 °F /  32.8 °C 29.3 °F /  -1.5 °C 29.67in /  1004.6hPa SSW 4.9mph /  7.9km/h 6.0mph /  9.7km/h 11% 0.00in /  0mm 98.0 W/m2
16:40 90.1 °F /  32.3 °C 28.6 °F /  -1.9 °C 29.67in /  1004.6hPa NW 0.9mph /  1.4km/h 4.0mph /  6.4km/h 11% 0.00in /  0mm 107.0 W/m2
16:45 89.2 °F /  31.8 °C 30.0 °F /  -1.1 °C 29.66in /  1004.3hPa North 0.9mph /  1.4km/h 6.0mph /  9.7km/h 12% 0.00in /  0mm 550.0 W/m2
16:50 89.4 °F /  31.9 °C 30.2 °F /  -1 °C 29.66in /  1004.3hPa WNW 0.9mph /  1.4km/h 8.0mph /  12.9km/h 12% 0.00in /  0mm 547.0 W/m2
16:55 89.6 °F /  32 °C 30.2 °F /  -1 °C 29.66in /  1004.3hPa SW 2.0mph /  3.2km/h 10.0mph /  16.1km/h 12% 0.00in /  0mm 522.0 W/m2
17:00 89.1 °F /  31.7 °C 29.8 °F /  -1.2 °C 29.67in /  1004.6hPa WNW 4.9mph /  7.9km/h 14.0mph /  22.5km/h 12% 0.00in /  0mm 501.0 W/m2
17:05 88.9 °F /  31.6 °C 29.7 °F /  -1.3 °C 29.67in /  1004.6hPa WSW 4.0mph /  6.4km/h 9.0mph /  14.5km/h 12% 0.00in /  0mm 469.0 W/m2
17:10 88.9 °F /  31.6 °C 31.6 °F /  -0.2 °C 29.66in /  1004.3hPa North 0.9mph /  1.4km/h 3.0mph /  4.8km/h 13% 0.00in /  0mm 446.0 W/m2
17:16 89.2 °F /  31.8 °C 30.0 °F /  -1.1 °C 29.67in /  1004.6hPa West 6.0mph /  9.7km/h 18.0mph /  29km/h 12% 0.00in /  0mm 450.0 W/m2
17:21 89.1 °F /  31.7 °C 29.8 °F /  -1.2 °C 29.67in /  1004.6hPa WSW 2.9mph /  4.7km/h 8.0mph /  12.9km/h 12% 0.00in /  0mm 411.0 W/m2
17:26 89.1 °F /  31.7 °C 29.8 °F /  -1.2 °C 29.67in /  1004.6hPa WSW 6.9mph /  11.1km/h 8.0mph /  12.9km/h 12% 0.00in /  0mm 381.0 W/m2
17:31 89.2 °F /  31.8 °C 30.0 °F /  -1.1 °C 29.67in /  1004.6hPa WNW 2.0mph /  3.2km/h 6.0mph /  9.7km/h 12% 0.00in /  0mm 401.0 W/m2
17:36 89.6 °F /  32 °C 30.2 °F /  -1 °C 29.67in /  1004.6hPa West 2.0mph /  3.2km/h 8.0mph /  12.9km/h 12% 0.00in /  0mm 320.0 W/m2
17:41 89.2 °F /  31.8 °C 30.0 °F /  -1.1 °C 29.67in /  1004.6hPa WSW 4.0mph /  6.4km/h 7.0mph /  11.3km/h 12% 0.00in /  0mm 278.0 W/m2
17:46 88.5 °F /  31.4 °C 29.5 °F /  -1.4 °C 29.67in /  1004.6hPa SW 0.9mph /  1.4km/h 10.0mph /  16.1km/h 12% 0.00in /  0mm 271.0 W/m2
17:51 88.2 °F /  31.2 °C 29.1 °F /  -1.6 °C 29.67in /  1004.6hPa WSW 2.9mph /  4.7km/h 6.0mph /  9.7km/h 12% 0.00in /  0mm 279.0 W/m2
17:56 88.2 °F /  31.2 °C 29.1 °F /  -1.6 °C 29.67in /  1004.6hPa NW 0.9mph /  1.4km/h 5.0mph /  8km/h 12% 0.00in /  0mm 262.0 W/m2
18:01 88.2 °F /  31.2 °C 29.1 °F /  -1.6 °C 29.67in /  1004.6hPa West 4.9mph /  7.9km/h 8.0mph /  12.9km/h 12% 0.00in /  0mm 179.0 W/m2
18:06 87.4 °F /  30.8 °C 28.6 °F /  -1.9 °C 29.67in /  1004.6hPa SW 0.9mph /  1.4km/h 4.0mph /  6.4km/h 12% 0.00in /  0mm 171.0 W/m2
18:12 87.3 °F /  30.7 °C 28.4 °F /  -2 °C 29.67in /  1004.6hPa SW 6.0mph /  9.7km/h 9.0mph /  14.5km/h 12% 0.00in /  0mm 213.0 W/m2
18:17 86.7 °F /  30.4 °C 28.0 °F /  -2.2 °C 29.67in /  1004.6hPa WNW 4.0mph /  6.4km/h 9.0mph /  14.5km/h 12% 0.00in /  0mm 149.0 W/m2
18:22 86.2 °F /  30.1 °C 27.7 °F /  -2.4 °C 29.67in /  1004.6hPa SW 10.1mph /  16.3km/h 15.0mph /  24.1km/h 12% 0.00in /  0mm 81.0 W/m2
18:27 85.5 °F /  29.7 °C 28.9 °F /  -1.7 °C 29.67in /  1004.6hPa WSW 4.9mph /  7.9km/h 9.0mph /  14.5km/h 13% 0.00in /  0mm 56.0 W/m2
18:32 84.7 °F /  29.3 °C 28.4 °F /  -2 °C 29.67in /  1004.6hPa WNW 6.9mph /  11.1km/h 10.0mph /  16.1km/h 13% 0.00in /  0mm 46.0 W/m2
18:37 84.4 °F /  29.1 °C 28.2 °F /  -2.1 °C 29.67in /  1004.6hPa NW 4.9mph /  7.9km/h 10.0mph /  16.1km/h 13% 0.00in /  0mm 35.0 W/m2
18:42 83.7 °F /  28.7 °C 27.7 °F /  -2.4 °C 29.68in /  1005hPa West 8.1mph /  13km/h 15.0mph /  24.1km/h 13% 0.00in /  0mm 33.0 W/m2
18:47 83.1 °F /  28.4 °C 28.9 °F /  -1.7 °C 29.68in /  1005hPa West 2.0mph /  3.2km/h 5.0mph /  8km/h 14% 0.00in /  0mm 32.0 W/m2
18:52 82.9 °F /  28.3 °C 28.8 °F /  -1.8 °C 29.68in /  1005hPa Calm   10.0mph /  16.1km/h 14% 0.00in /  0mm 26.0 W/m2
18:57 82.6 °F /  28.1 °C 28.6 °F /  -1.9 °C 29.69in /  1005.3hPa SSE 8.9mph /  14.3km/h 13.0mph /  20.9km/h 14% 0.00in /  0mm 21.0 W/m2
19:02 82.2 °F /  27.9 °C 28.2 °F /  -2.1 °C 29.69in /  1005.3hPa South 2.0mph /  3.2km/h 10.0mph /  16.1km/h 14% 0.00in /  0mm 18.0 W/m2
19:07 81.9 °F /  27.7 °C 28.0 °F /  -2.2 °C 29.69in /  1005.3hPa WSW 2.9mph /  4.7km/h 13.0mph /  20.9km/h 14% 0.00in /  0mm 14.0 W/m2
19:13 81.3 °F /  27.4 °C 27.5 °F /  -2.5 °C 29.69in /  1005.3hPa West 2.9mph /  4.7km/h 10.0mph /  16.1km/h 14% 0.00in /  0mm 11.0 W/m2
19:18 81.0 °F /  27.2 °C 27.3 °F /  -2.6 °C 29.70in /  1005.6hPa SW 6.9mph /  11.1km/h 16.0mph /  25.7km/h 14% 0.00in /  0mm 7.0 W/m2
19:23 80.8 °F /  27.1 °C 27.1 °F /  -2.7 °C 29.70in /  1005.6hPa SSW 6.0mph /  9.7km/h 13.0mph /  20.9km/h 14% 0.00in /  0mm 5.0 W/m2
19:28 80.4 °F /  26.9 °C 26.8 °F /  -2.9 °C 29.71in /  1006hPa West 6.0mph /  9.7km/h 11.0mph /  17.7km/h 14% 0.00in /  0mm 0.0 W/m2
19:33 80.1 °F /  26.7 °C 26.6 °F /  -3 °C 29.70in /  1005.6hPa WSW 4.9mph /  7.9km/h 5.0mph /  8km/h 14% 0.00in /  0mm 0.0 W/m2
19:35 80.1 °F /  26.7 °C 26.6 °F /  -3 °C 29.70in /  1005.6hPa SSW 4.0mph /  6.4km/h 7.0mph /  11.3km/h 14% 0.00in /  0mm 0.0 W/m2
19:40 79.7 °F /  26.5 °C 26.2 °F /  -3.2 °C 29.71in /  1006hPa WSW 8.1mph /  13km/h 10.0mph /  16.1km/h 14% 0.00in /  0mm 0.0 W/m2
19:45 79.3 °F /  26.3 °C 26.1 °F /  -3.3 °C 29.71in /  1006hPa WSW 4.0mph /  6.4km/h 9.0mph /  14.5km/h 14% 0.00in /  0mm 0.0 W/m2
19:50 79.0 °F /  26.1 °C 27.3 °F /  -2.6 °C 29.71in /  1006hPa South 2.9mph /  4.7km/h 10.0mph /  16.1km/h 15% 0.00in /  0mm 0.0 W/m2
20:01 78.4 °F /  25.8 °C 27.0 °F /  -2.8 °C 29.72in /  1006.3hPa SW 4.0mph /  6.4km/h 8.0mph /  12.9km/h 15% 0.00in /  0mm 0.0 W/m2
20:06 78.3 °F /  25.7 °C 26.8 °F /  -2.9 °C 29.72in /  1006.3hPa SW 6.9mph /  11.1km/h 9.0mph /  14.5km/h 15% 0.00in /  0mm 0.0 W/m2
20:11 78.1 °F /  25.6 °C 26.6 °F /  -3 °C 29.72in /  1006.3hPa West 6.0mph /  9.7km/h 6.0mph /  9.7km/h 15% 0.00in /  0mm 0.0 W/m2
20:16 77.7 °F /  25.4 °C 26.4 °F /  -3.1 °C 29.73in /  1006.7hPa WSW 8.1mph /  13km/h 16.0mph /  25.7km/h 15% 0.00in /  0mm 0.0 W/m2
20:26 77.2 °F /  25.1 °C 25.9 °F /  -3.4 °C 29.73in /  1006.7hPa WSW 2.9mph /  4.7km/h 5.0mph /  8km/h 15% 0.00in /  0mm 0.0 W/m2
20:31 77.0 °F /  25 °C 25.9 °F /  -3.4 °C 29.74in /  1007hPa WSW 0.9mph /  1.4km/h 4.0mph /  6.4km/h 15% 0.00in /  0mm 0.0 W/m2
20:36 76.8 °F /  24.9 °C 25.7 °F /  -3.5 °C 29.74in /  1007hPa WSW 2.9mph /  4.7km/h 5.0mph /  8km/h 15% 0.00in /  0mm 0.0 W/m2
20:41 76.5 °F /  24.7 °C 25.3 °F /  -3.7 °C 29.74in /  1007hPa WSW 2.0mph /  3.2km/h 9.0mph /  14.5km/h 15% 0.00in /  0mm 0.0 W/m2
20:46 76.5 °F /  24.7 °C 25.3 °F /  -3.7 °C 29.75in /  1007.3hPa Calm   1.0mph /  1.6km/h 15% 0.00in /  0mm 0.0 W/m2
20:51 76.3 °F /  24.6 °C 26.8 °F /  -2.9 °C 29.75in /  1007.3hPa SW 0.9mph /  1.4km/h 3.0mph /  4.8km/h 16% 0.00in /  0mm 0.0 W/m2
20:56 75.9 °F /  24.4 °C 26.4 °F /  -3.1 °C 29.75in /  1007.3hPa South 0.9mph /  1.4km/h 5.0mph /  8km/h 16% 0.00in /  0mm 0.0 W/m2
21:02 75.7 °F /  24.3 °C 26.4 °F /  -3.1 °C 29.75in /  1007.3hPa Calm   1.0mph /  1.6km/h 16% 0.00in /  0mm 0.0 W/m2
21:07 75.6 °F /  24.2 °C 26.2 °F /  -3.2 °C 29.75in /  1007.3hPa SE 0.9mph /  1.4km/h 2.0mph /  3.2km/h 16% 0.00in /  0mm 0.0 W/m2
21:12 75.4 °F /  24.1 °C 26.1 °F /  -3.3 °C 29.75in /  1007.3hPa Calm   1.0mph /  1.6km/h 16% 0.00in /  0mm 0.0 W/m2
21:18 74.8 °F /  23.8 °C 27.1 °F /  -2.7 °C 29.76in /  1007.7hPa SE 5.0mph /  8km/h 5.0mph /  8km/h 17% 0.00in /  0mm 0.0 W/m2
21:23 74.7 °F /  23.7 °C 27.0 °F /  -2.8 °C 29.76in /  1007.7hPa SE 0.9mph /  1.4km/h 5.0mph /  8km/h 17% 0.00in /  0mm 0.0 W/m2
21:28 74.5 °F /  23.6 °C 26.8 °F /  -2.9 °C 29.75in /  1007.3hPa Calm   1.0mph /  1.6km/h 17% 0.00in /  0mm 0.0 W/m2
21:33 74.1 °F /  23.4 °C 26.6 °F /  -3 °C 29.75in /  1007.3hPa Calm   4.0mph /  6.4km/h 17% 0.00in /  0mm 0.0 W/m2
21:38 73.9 °F /  23.3 °C 26.4 °F /  -3.1 °C 29.76in /  1007.7hPa Calm   4.0mph /  6.4km/h 17% 0.00in /  0mm 0.0 W/m2
21:44 73.9 °F /  23.3 °C 26.4 °F /  -3.1 °C 29.76in /  1007.7hPa SSE 0.9mph /  1.4km/h 4.0mph /  6.4km/h 17% 0.00in /  0mm 0.0 W/m2
21:49 73.9 °F /  23.3 °C 26.4 °F /  -3.1 °C 29.76in /  1007.7hPa Calm   3.0mph /  4.8km/h 17% 0.00in /  0mm 0.0 W/m2
21:54 73.9 °F /  23.3 °C 26.4 °F /  -3.1 °C 29.76in /  1007.7hPa SSW 2.0mph /  3.2km/h 5.0mph /  8km/h 17% 0.00in /  0mm 0.0 W/m2
21:59 73.9 °F /  23.3 °C 26.4 °F /  -3.1 °C 29.76in /  1007.7hPa SSW 0.9mph /  1.4km/h 3.0mph /  4.8km/h 17% 0.00in /  0mm 0.0 W/m2
22:04 73.9 °F /  23.3 °C 26.4 °F /  -3.1 °C 29.76in /  1007.7hPa Calm   2.0mph /  3.2km/h 17% 0.00in /  0mm 0.0 W/m2
22:09 73.9 °F /  23.3 °C 27.7 °F /  -2.4 °C 29.77in /  1008hPa Calm   3.0mph /  4.8km/h 18% 0.00in /  0mm 0.0 W/m2
22:14 73.8 °F /  23.2 °C 26.2 °F /  -3.2 °C 29.77in /  1008hPa Calm   2.0mph /  3.2km/h 17% 0.00in /  0mm 0.0 W/m2
22:19 73.8 °F /  23.2 °C 27.7 °F /  -2.4 °C 29.77in /  1008hPa SE 0.9mph /  1.4km/h 2.0mph /  3.2km/h 18% 0.00in /  0mm 0.0 W/m2
22:24 73.4 °F /  23 °C 27.3 °F /  -2.6 °C 29.77in /  1008hPa Calm   1.0mph /  1.6km/h 18% 0.00in /  0mm 0.0 W/m2
22:29 73.0 °F /  22.8 °C 25.7 °F /  -3.5 °C 29.77in /  1008hPa Calm   5.0mph /  8km/h 17% 0.00in /  0mm 0.0 W/m2
22:35 72.9 °F /  22.7 °C 27.0 °F /  -2.8 °C 29.77in /  1008hPa Calm   4.0mph /  6.4km/h 18% 0.00in /  0mm 0.0 W/m2
22:40 72.7 °F /  22.6 °C 26.8 °F /  -2.9 °C 29.77in /  1008hPa Calm   2.0mph /  3.2km/h 18% 0.00in /  0mm 0.0 W/m2
22:45 72.3 °F /  22.4 °C 26.4 °F /  -3.1 °C 29.77in /  1008hPa SSW 2.0mph /  3.2km/h 3.0mph /  4.8km/h 18% 0.00in /  0mm 0.0 W/m2
22:50 72.3 °F /  22.4 °C 26.4 °F /  -3.1 °C 29.77in /  1008hPa SSW 4.0mph /  6.4km/h 7.0mph /  11.3km/h 18% 0.00in /  0mm 0.0 W/m2
22:55 72.1 °F /  22.3 °C 26.2 °F /  -3.2 °C 29.77in /  1008hPa SSW 2.0mph /  3.2km/h 5.0mph /  8km/h 18% 0.00in /  0mm 0.0 W/m2
23:00 72.1 °F /  22.3 °C 26.2 °F /  -3.2 °C 29.77in /  1008hPa Calm   2.0mph /  3.2km/h 18% 0.00in /  0mm 0.0 W/m2
23:05 72.0 °F /  22.2 °C 26.1 °F /  -3.3 °C 29.77in /  1008hPa Calm   3.0mph /  4.8km/h 18% 0.00in /  0mm 0.0 W/m2
23:10 72.0 °F /  22.2 °C 26.1 °F /  -3.3 °C 29.77in /  1008hPa Calm   3.0mph /  4.8km/h 18% 0.00in /  0mm 0.0 W/m2
23:15 71.8 °F /  22.1 °C 26.1 °F /  -3.3 °C 29.77in /  1008hPa Calm     18% 0.00in /  0mm 0.0 W/m2
23:20 71.6 °F /  22 °C 25.9 °F /  -3.4 °C 29.77in /  1008hPa Calm   3.0mph /  4.8km/h 18% 0.00in /  0mm 0.0 W/m2
23:25 71.4 °F /  21.9 °C 25.7 °F /  -3.5 °C 29.77in /  1008hPa ESE 0.9mph /  1.4km/h 3.0mph /  4.8km/h 18% 0.00in /  0mm 0.0 W/m2
23:31 71.2 °F /  21.8 °C 25.5 °F /  -3.6 °C 29.77in /  1008hPa Calm   4.0mph /  6.4km/h 18% 0.00in /  0mm 0.0 W/m2
23:36 71.2 °F /  21.8 °C 25.5 °F /  -3.6 °C 29.77in /  1008hPa Calm   1.0mph /  1.6km/h 18% 0.00in /  0mm 0.0 W/m2
23:41 71.2 °F /  21.8 °C 25.5 °F /  -3.6 °C 29.77in /  1008hPa South 2.9mph /  4.7km/h 4.0mph /  6.4km/h 18% 0.00in /  0mm 0.0 W/m2
23:46 71.1 °F /  21.7 °C 25.3 °F /  -3.7 °C 29.77in /  1008hPa SE 2.9mph /  4.7km/h 3.0mph /  4.8km/h 18% 0.00in /  0mm 0.0 W/m2
23:51 71.1 °F /  21.7 °C 25.3 °F /  -3.7 °C 29.77in /  1008hPa Calm   1.0mph /  1.6km/h 18% 0.00in /  0mm 0.0 W/m2
23:56 71.1 °F /  21.7 °C 25.3 °F /  -3.7 °C 29.76in /  1007.7hPa South 0.9mph /  1.4km/h 6.0mph /  9.7km/h 18% 0.00in /  0mm 0.0 W/m2
Olympia, Windhoek, Namibia
Compliments of Weather Underground - 3.25 mb